createdAt,value
2023-04-23T00:00:03.602Z,7.13
2023-04-23T00:02:37.916Z,7.05
2023-04-23T00:05:10.452Z,7.00
2023-04-23T00:07:41.022Z,7.17
2023-04-23T00:10:12.361Z,7.22
2023-04-23T00:12:43.777Z,7.13
2023-04-23T00:15:15.389Z,7.07
2023-04-23T00:17:47.511Z,7.14
2023-04-23T00:20:17.270Z,7.03
2023-04-23T00:22:47.065Z,6.97
2023-04-23T00:25:16.667Z,6.89
2023-04-23T00:27:46.300Z,6.87
2023-04-23T00:30:16.946Z,6.75
2023-04-23T00:32:49.333Z,6.68
2023-04-23T00:35:19.018Z,6.57
2023-04-23T00:37:48.566Z,6.55
2023-04-23T00:40:18.162Z,6.49
2023-04-23T00:42:48.978Z,6.51
2023-04-23T00:45:19.159Z,6.50
2023-04-23T00:47:51.369Z,6.46
2023-04-23T00:50:21.247Z,6.40
2023-04-23T00:52:50.903Z,6.34
2023-04-23T00:55:21.339Z,6.25
2023-04-23T00:57:51.662Z,6.31
2023-04-23T01:00:21.583Z,6.27
2023-04-23T01:02:54.210Z,6.33
2023-04-23T01:05:26.279Z,6.37
2023-04-23T01:07:56.869Z,6.41
2023-04-23T01:10:27.188Z,6.34
2023-04-23T01:12:56.864Z,6.33
2023-04-23T01:15:26.567Z,6.31
2023-04-23T01:17:59.815Z,6.29
2023-04-23T01:20:29.542Z,6.15
2023-04-23T01:23:01.666Z,6.20
2023-04-23T01:25:31.338Z,6.09
2023-04-23T01:28:01.448Z,5.92
2023-04-23T01:30:31.814Z,5.91
2023-04-23T01:33:01.858Z,5.86
2023-04-23T01:35:32.097Z,5.93
2023-04-23T01:38:06.564Z,5.89
2023-04-23T01:40:36.235Z,5.93
2023-04-23T01:43:06.706Z,5.82
2023-04-23T01:45:36.268Z,5.81
2023-04-23T01:48:05.980Z,5.81
2023-04-23T01:50:35.734Z,5.75
2023-04-23T01:53:07.873Z,5.62
2023-04-23T01:55:40.736Z,5.61
2023-04-23T01:58:10.348Z,5.75
2023-04-23T02:00:39.920Z,5.65
2023-04-23T02:03:09.613Z,5.50
2023-04-23T02:05:39.411Z,5.46
2023-04-23T02:08:12.401Z,5.49
2023-04-23T02:10:42.001Z,5.47
2023-04-23T02:13:11.523Z,5.49
2023-04-23T02:15:43.316Z,5.45
2023-04-23T02:18:13.693Z,5.47
2023-04-23T02:20:44.030Z,5.40
2023-04-23T02:23:16.168Z,5.46
2023-04-23T02:25:46.225Z,5.34
2023-04-23T02:28:15.814Z,5.31
2023-04-23T02:30:48.009Z,5.43
2023-04-23T02:33:17.552Z,5.38
2023-04-23T02:35:47.072Z,5.34
2023-04-23T02:38:19.196Z,5.30
2023-04-23T02:40:48.691Z,5.33
2023-04-23T02:43:18.370Z,5.22
2023-04-23T02:45:47.960Z,5.06
2023-04-23T02:48:18.258Z,4.98
2023-04-23T02:50:47.801Z,4.98
2023-04-23T02:53:19.929Z,4.94
2023-04-23T02:55:49.484Z,4.91
2023-04-23T02:58:19.066Z,4.79
2023-04-23T03:00:48.746Z,4.85
2023-04-23T03:03:18.860Z,4.83
2023-04-23T03:05:48.501Z,4.94
2023-04-23T03:08:20.658Z,4.94
2023-04-23T03:10:50.646Z,5.00
2023-04-23T03:13:20.256Z,5.00
2023-04-23T03:15:49.891Z,4.98
2023-04-23T03:18:19.437Z,5.14
2023-04-23T03:20:49.351Z,5.17
2023-04-23T03:23:21.480Z,5.12
2023-04-23T03:25:51.026Z,5.08
2023-04-23T03:28:20.552Z,5.10
2023-04-23T03:30:50.135Z,5.17
2023-04-23T03:33:19.703Z,5.25
2023-04-23T03:35:49.426Z,5.21
2023-04-23T03:38:21.568Z,5.14
2023-04-23T03:40:51.171Z,5.15
2023-04-23T03:43:20.712Z,5.14
2023-04-23T03:45:50.340Z,5.09
2023-04-23T03:48:20.958Z,5.19
2023-04-23T03:50:50.718Z,5.20
2023-04-23T03:53:22.968Z,5.23
2023-04-23T03:55:52.471Z,5.40
2023-04-23T03:58:22.042Z,5.57
2023-04-23T04:00:51.853Z,5.74
2023-04-23T04:03:21.802Z,6.06
2023-04-23T04:05:51.617Z,6.28
2023-04-23T04:08:23.866Z,6.80
2023-04-23T04:10:53.485Z,6.91
2023-04-23T04:13:23.034Z,6.97
2023-04-23T04:15:52.610Z,7.49
2023-04-23T04:18:22.761Z,7.82
2023-04-23T04:20:53.510Z,8.70
2023-04-23T04:23:25.848Z,9.71
2023-04-23T04:25:56.755Z,10.35
2023-04-23T04:28:27.353Z,10.97
2023-04-23T04:30:57.719Z,11.30
2023-04-23T04:33:27.307Z,11.44
2023-04-23T04:35:56.880Z,12.65
2023-04-23T04:38:29.958Z,11.88
2023-04-23T04:41:00.454Z,12.62
2023-04-23T04:43:29.988Z,12.82
2023-04-23T04:46:00.442Z,13.63
2023-04-23T04:48:30.276Z,13.97
2023-04-23T04:50:59.888Z,15.36
2023-04-23T04:53:32.068Z,16.15
2023-04-23T04:56:01.668Z,16.08
2023-04-23T04:58:31.800Z,15.83
2023-04-23T05:01:01.825Z,15.59
2023-04-23T05:03:31.747Z,15.67
2023-04-23T05:06:01.390Z,16.60
2023-04-23T05:08:33.517Z,16.41
2023-04-23T05:11:04.094Z,16.08
2023-04-23T05:13:33.744Z,15.65
2023-04-23T05:16:03.313Z,17.08
2023-04-23T05:18:32.980Z,16.68
2023-04-23T05:21:03.176Z,16.20
2023-04-23T05:23:35.329Z,16.44
2023-04-23T05:26:06.231Z,16.42
2023-04-23T05:28:35.839Z,16.55
2023-04-23T05:31:05.475Z,16.33
2023-04-23T05:33:46.212Z,15.85
2023-04-23T05:36:18.572Z,16.43
2023-04-23T05:38:50.989Z,16.50
2023-04-23T05:41:20.511Z,16.67
2023-04-23T05:43:50.037Z,17.79
2023-04-23T05:46:19.668Z,17.94
2023-04-23T05:48:49.242Z,19.72
2023-04-23T05:51:18.753Z,19.76
2023-04-23T05:53:50.937Z,19.24
2023-04-23T05:56:21.145Z,20.01
2023-04-23T05:58:51.119Z,19.11
2023-04-23T06:01:20.938Z,19.36
2023-04-23T06:03:50.847Z,18.21
2023-04-23T06:06:20.530Z,18.28
2023-04-23T06:08:52.665Z,19.43
2023-04-23T06:11:22.896Z,20.18
2023-04-23T06:13:52.496Z,20.48
2023-04-23T06:16:22.510Z,20.59
2023-04-23T06:18:52.044Z,20.45
2023-04-23T06:21:21.715Z,19.27
2023-04-23T06:23:54.773Z,19.18
2023-04-23T06:26:24.316Z,20.14
2023-04-23T06:28:53.874Z,20.46
2023-04-23T06:31:23.607Z,21.16
2023-04-23T06:33:53.151Z,20.86
2023-04-23T06:36:22.678Z,21.69
2023-04-23T06:38:54.812Z,21.96
2023-04-23T06:41:24.435Z,21.52
2023-04-23T06:43:53.994Z,21.79
2023-04-23T06:46:23.585Z,22.90
2023-04-23T06:48:53.135Z,23.25
2023-04-23T06:51:22.708Z,24.20
2023-04-23T06:53:54.847Z,24.34
2023-04-23T06:56:24.404Z,24.44
2023-04-23T06:58:53.958Z,23.04
2023-04-23T07:01:23.688Z,23.45
2023-04-23T07:03:54.716Z,24.99
2023-04-23T07:06:24.333Z,24.69
2023-04-23T07:08:56.433Z,23.44
2023-04-23T07:11:26.909Z,22.95
2023-04-23T07:13:56.480Z,24.35
2023-04-23T07:16:26.194Z,24.44
2023-04-23T07:18:56.069Z,24.14
2023-04-23T07:21:27.710Z,24.96
2023-04-23T07:24:06.888Z,25.62
2023-04-23T07:26:37.403Z,25.12
2023-04-23T07:29:10.670Z,25.10
2023-04-23T07:31:41.711Z,26.49
2023-04-23T07:34:11.839Z,26.54
2023-04-23T07:36:41.375Z,26.71
2023-04-23T07:39:13.537Z,26.21
2023-04-23T07:41:43.255Z,26.83
2023-04-23T07:44:12.941Z,24.11
2023-04-23T07:46:42.480Z,23.75
2023-04-23T07:49:12.065Z,23.81
2023-04-23T07:51:41.779Z,23.57
2023-04-23T07:54:14.069Z,22.58
2023-04-23T07:56:43.618Z,22.04
2023-04-23T07:59:13.228Z,21.80
2023-04-23T08:01:42.794Z,22.09
2023-04-23T08:04:12.608Z,22.19
2023-04-23T08:06:42.265Z,22.90
2023-04-23T08:09:14.439Z,23.78
2023-04-23T08:11:44.477Z,22.77
2023-04-23T08:14:14.049Z,22.39
2023-04-23T08:16:43.636Z,22.46
2023-04-23T08:19:13.230Z,22.91
2023-04-23T08:21:42.798Z,22.40
2023-04-23T08:24:15.007Z,22.65
2023-04-23T08:26:44.572Z,23.27
2023-04-23T08:29:14.258Z,24.43
2023-04-23T08:31:43.843Z,24.67
2023-04-23T08:34:15.135Z,24.60
2023-04-23T08:36:46.529Z,24.33
2023-04-23T08:39:18.874Z,25.39
2023-04-23T08:41:56.079Z,25.66
2023-04-23T08:44:26.962Z,23.44
2023-04-23T08:46:57.683Z,25.12
2023-04-23T08:49:30.677Z,25.22
2023-04-23T08:52:06.496Z,23.69
2023-04-23T08:54:44.386Z,23.12
2023-04-23T08:57:14.639Z,23.42
2023-04-23T08:59:45.107Z,23.73
2023-04-23T09:02:16.085Z,24.21
2023-04-23T09:04:45.919Z,23.97
2023-04-23T09:07:16.024Z,24.19
2023-04-23T09:09:48.294Z,24.69
2023-04-23T09:12:17.952Z,24.58
2023-04-23T09:14:47.846Z,24.23
2023-04-23T09:17:17.393Z,24.27
2023-04-23T09:19:48.094Z,24.19
2023-04-23T09:22:17.687Z,23.64
2023-04-23T09:24:49.790Z,22.92
2023-04-23T09:27:26.608Z,23.29
2023-04-23T09:29:59.711Z,22.85
2023-04-23T09:32:34.755Z,23.63
2023-04-23T09:35:08.791Z,24.28
2023-04-23T09:37:38.491Z,24.87
2023-04-23T09:40:12.136Z,24.68
2023-04-23T09:42:41.883Z,24.86
2023-04-23T09:45:14.718Z,24.88
2023-04-23T09:47:51.225Z,23.99
2023-04-23T09:50:20.900Z,24.33
2023-04-23T09:52:57.316Z,24.60
2023-04-23T09:55:39.336Z,23.04
2023-04-23T09:58:10.379Z,22.85
2023-04-23T10:00:41.167Z,22.82
2023-04-23T10:03:12.444Z,22.84
2023-04-23T10:08:17.651Z,23.28
2023-04-23T10:11:06.058Z,22.84
2023-04-23T10:13:41.166Z,22.57
2023-04-23T10:16:21.755Z,22.79
2023-04-23T10:18:57.046Z,22.17
2023-04-23T10:21:39.397Z,22.15
2023-04-23T10:24:13.697Z,21.80
2023-04-23T10:26:47.461Z,21.78
2023-04-23T10:29:18.971Z,21.55
2023-04-23T10:31:48.980Z,21.11
2023-04-23T10:34:18.781Z,21.42
2023-04-23T10:36:48.378Z,21.74
2023-04-23T10:39:27.487Z,21.48
2023-04-23T10:42:02.382Z,21.47
2023-04-23T10:47:19.655Z,20.95
2023-04-23T10:49:49.405Z,21.13
2023-04-23T10:52:23.776Z,21.24
2023-04-23T10:55:01.026Z,21.19
2023-04-23T10:57:33.210Z,21.51
2023-04-23T11:00:06.165Z,21.47
2023-04-23T11:02:46.684Z,21.35
2023-04-23T11:05:16.534Z,21.60
2023-04-23T11:08:18.307Z,21.76
2023-04-23T11:10:57.164Z,21.61
2023-04-23T11:13:30.506Z,22.04
2023-04-23T11:16:18.809Z,22.02
2023-04-23T11:18:59.152Z,22.29
2023-04-23T11:22:01.762Z,22.47
2023-04-23T11:24:32.957Z,22.46
2023-04-23T11:27:03.378Z,22.41
2023-04-23T11:29:35.618Z,22.60
2023-04-23T11:32:05.638Z,22.29
2023-04-23T11:34:36.592Z,22.49
2023-04-23T11:37:09.999Z,22.74
2023-04-23T11:39:40.960Z,22.76
2023-04-23T11:42:13.395Z,22.29
2023-04-23T11:44:47.887Z,22.47
2023-04-23T11:47:19.308Z,22.81
2023-04-23T11:49:48.946Z,22.72
2023-04-23T11:52:18.588Z,22.23
2023-04-23T11:54:48.302Z,22.15
2023-04-23T11:57:18.002Z,22.62
2023-04-23T11:59:50.245Z,22.18
2023-04-23T12:02:20.111Z,22.06
2023-04-23T12:04:49.825Z,22.25
2023-04-23T12:07:26.384Z,22.40
2023-04-23T12:10:01.841Z,22.20
2023-04-23T12:12:36.321Z,21.55
2023-04-23T12:15:12.341Z,21.55
2023-04-23T12:17:41.976Z,21.31
2023-04-23T12:20:16.193Z,21.01
2023-04-23T12:22:45.710Z,21.11
2023-04-23T12:25:15.715Z,21.09
2023-04-23T12:27:47.485Z,21.41
2023-04-23T12:30:19.777Z,21.36
2023-04-23T12:32:49.366Z,21.60
2023-04-23T12:35:19.048Z,21.43
2023-04-23T12:37:48.619Z,21.05
2023-04-23T12:40:19.885Z,20.95
2023-04-23T12:42:49.457Z,21.27
2023-04-23T12:45:21.891Z,21.15
2023-04-23T12:47:51.522Z,20.85
2023-04-23T12:50:21.309Z,21.33
2023-04-23T12:52:50.850Z,21.42
2023-04-23T12:55:22.301Z,21.61
2023-04-23T12:57:51.935Z,21.96
2023-04-23T13:00:24.768Z,22.38
2023-04-23T13:02:54.606Z,22.19
2023-04-23T13:05:24.568Z,22.16
2023-04-23T13:07:54.103Z,22.78
2023-04-23T13:10:23.886Z,22.83
2023-04-23T13:12:53.469Z,22.93
2023-04-23T13:15:27.041Z,22.03
2023-04-23T13:17:56.915Z,20.75
2023-04-23T13:20:28.468Z,20.69
2023-04-23T13:22:58.599Z,20.33
2023-04-23T13:25:28.354Z,20.06
2023-04-23T13:27:58.273Z,20.06
2023-04-23T13:30:30.424Z,19.94
2023-04-23T13:33:00.234Z,19.94
2023-04-23T13:35:29.977Z,20.15
2023-04-23T13:37:59.567Z,20.06
2023-04-23T13:40:29.197Z,20.13
2023-04-23T13:42:58.800Z,19.98
2023-04-23T13:45:30.945Z,19.78
2023-04-23T13:48:02.578Z,19.50
2023-04-23T13:50:32.231Z,19.61
2023-04-23T13:53:01.974Z,19.76
2023-04-23T13:55:31.722Z,19.91
2023-04-23T13:58:01.311Z,20.02
2023-04-23T14:00:33.734Z,19.77
2023-04-23T14:03:03.428Z,19.84
2023-04-23T14:05:34.268Z,19.72
2023-04-23T14:08:03.883Z,19.50
2023-04-23T14:10:33.645Z,19.45
2023-04-23T14:13:03.491Z,19.46
2023-04-23T14:15:35.676Z,19.42
2023-04-23T14:18:05.296Z,19.26
2023-04-23T14:20:34.899Z,19.34
2023-04-23T14:23:09.198Z,19.12
2023-04-23T14:25:43.559Z,19.19
2023-04-23T14:28:31.948Z,19.35
2023-04-23T14:31:05.416Z,19.29
2023-04-23T14:33:35.049Z,19.15
2023-04-23T14:36:04.694Z,19.13
2023-04-23T14:38:34.300Z,19.21
2023-04-23T14:41:03.845Z,19.09
2023-04-23T14:43:34.182Z,18.94
2023-04-23T14:46:06.493Z,18.77
2023-04-23T14:48:36.046Z,18.71
2023-04-23T14:51:05.808Z,18.61
2023-04-23T14:53:35.624Z,18.55
2023-04-23T14:56:05.847Z,18.45
2023-04-23T14:58:35.503Z,18.34
2023-04-23T15:01:07.928Z,18.40
2023-04-23T15:03:37.881Z,18.37
2023-04-23T15:06:09.691Z,18.35
2023-04-23T15:08:39.495Z,18.09
2023-04-23T15:11:13.589Z,17.92
2023-04-23T15:13:53.215Z,17.93
2023-04-23T15:16:47.448Z,17.84
2023-04-23T15:19:20.480Z,17.70
2023-04-23T15:21:50.805Z,17.58
2023-04-23T15:24:20.373Z,17.49
2023-04-23T15:26:50.012Z,17.23
2023-04-23T15:29:19.702Z,17.01
2023-04-23T15:31:58.010Z,16.88
2023-04-23T15:34:27.899Z,16.79
2023-04-23T15:36:57.425Z,16.86
2023-04-23T15:39:27.000Z,16.76
2023-04-23T15:41:56.640Z,16.64
2023-04-23T15:44:26.474Z,16.63
2023-04-23T15:47:01.392Z,16.49
2023-04-23T15:49:30.927Z,16.35
2023-04-23T15:52:00.553Z,16.10
2023-04-23T15:54:30.228Z,15.95
2023-04-23T15:56:59.795Z,15.51
2023-04-23T15:59:29.471Z,15.28
2023-04-23T16:02:01.672Z,15.07
2023-04-23T16:04:31.672Z,15.02
2023-04-23T16:07:01.561Z,14.85
2023-04-23T16:09:32.804Z,14.80
2023-04-23T16:12:02.647Z,14.83
2023-04-23T16:14:32.403Z,14.91
2023-04-23T16:17:04.561Z,14.86
2023-04-23T16:19:34.293Z,14.89
2023-04-23T16:22:03.891Z,14.93
2023-04-23T16:24:33.499Z,14.98
2023-04-23T16:27:03.136Z,15.02
2023-04-23T16:29:32.886Z,14.98
2023-04-23T16:32:05.084Z,14.99
2023-04-23T16:34:34.689Z,14.92
2023-04-23T16:37:04.384Z,14.88
2023-04-23T16:39:34.019Z,14.89
2023-04-23T16:42:03.648Z,14.86
2023-04-23T16:44:33.759Z,14.80
2023-04-23T16:47:05.978Z,14.76
2023-04-23T16:49:35.653Z,14.66
2023-04-23T16:52:05.262Z,14.55
2023-04-23T16:54:36.322Z,14.50
2023-04-23T16:57:07.664Z,14.44
2023-04-23T16:59:37.735Z,14.42
2023-04-23T17:02:10.402Z,14.44
2023-04-23T17:04:40.344Z,14.39
2023-04-23T17:07:10.141Z,14.40
2023-04-23T17:09:39.768Z,14.40
2023-04-23T17:12:09.533Z,14.45
2023-04-23T17:14:39.128Z,14.49
2023-04-23T17:17:11.273Z,14.53
2023-04-23T17:19:40.872Z,14.54
2023-04-23T17:22:10.923Z,14.49
2023-04-23T17:24:42.697Z,14.60
2023-04-23T17:27:12.494Z,14.58
2023-04-23T17:29:42.038Z,14.54
2023-04-23T17:32:14.205Z,14.55
2023-04-23T17:34:44.070Z,14.52
2023-04-23T17:37:14.025Z,14.50
2023-04-23T17:39:43.548Z,14.46
2023-04-23T17:42:13.776Z,14.46
2023-04-23T17:44:43.665Z,14.33
2023-04-23T17:47:16.207Z,14.31
2023-04-23T17:49:45.808Z,14.27
2023-04-23T17:52:16.325Z,14.22
2023-04-23T17:54:46.180Z,14.26
2023-04-23T17:57:15.823Z,14.20
2023-04-23T17:59:45.463Z,14.13
2023-04-23T18:02:17.870Z,14.12
2023-04-23T18:04:47.503Z,14.12
2023-04-23T18:07:17.046Z,14.07
2023-04-23T18:09:46.826Z,14.05
2023-04-23T18:12:16.896Z,14.02
2023-04-23T18:14:46.470Z,14.03
2023-04-23T18:17:19.232Z,14.05
2023-04-23T18:19:49.184Z,14.12
2023-04-23T18:22:19.044Z,14.10
2023-04-23T18:24:49.824Z,14.10
2023-04-23T18:27:19.787Z,14.10
2023-04-23T18:29:49.358Z,14.10
2023-04-23T18:32:33.616Z,14.14
2023-04-23T18:35:04.326Z,14.14
2023-04-23T18:37:35.926Z,14.12
2023-04-23T18:40:05.950Z,14.07
2023-04-23T18:42:35.607Z,14.06
2023-04-23T18:45:06.003Z,14.03
2023-04-23T18:47:45.144Z,13.98
2023-04-23T18:50:33.495Z,13.97
2023-04-23T18:53:03.436Z,13.90
2023-04-23T18:55:33.199Z,13.89
2023-04-23T18:58:03.282Z,13.85
2023-04-23T19:00:32.973Z,13.82
2023-04-23T19:03:15.158Z,13.80
2023-04-23T19:05:53.970Z,13.77
2023-04-23T19:08:28.832Z,13.75
2023-04-23T19:10:58.517Z,13.72
2023-04-23T19:13:28.052Z,13.73
2023-04-23T19:15:57.723Z,13.73
2023-04-23T19:18:30.536Z,13.71
2023-04-23T19:21:00.539Z,13.74
2023-04-23T19:23:30.428Z,13.69
2023-04-23T19:26:00.127Z,13.69
2023-04-23T19:28:29.719Z,13.76
2023-04-23T19:30:59.760Z,13.81
2023-04-23T19:33:32.004Z,13.77
2023-04-23T19:36:01.591Z,13.79
2023-04-23T19:38:31.634Z,13.71
2023-04-23T19:41:01.191Z,13.69
2023-04-23T19:43:30.799Z,13.65
2023-04-23T19:46:00.349Z,13.57
2023-04-23T19:48:32.523Z,13.54
2023-04-23T19:51:02.131Z,13.52
2023-04-23T19:53:31.951Z,13.47
2023-04-23T19:56:01.587Z,13.45
2023-04-23T19:58:31.111Z,13.45
2023-04-23T20:01:00.724Z,13.44
2023-04-23T20:03:34.652Z,13.43
2023-04-23T20:06:04.438Z,13.48
2023-04-23T20:08:42.416Z,13.53
2023-04-23T20:11:13.542Z,13.54
2023-04-23T20:13:43.109Z,13.53
2023-04-23T20:16:13.558Z,13.51
2023-04-23T20:18:47.381Z,13.40
2023-04-23T20:21:16.972Z,13.34
2023-04-23T20:23:46.531Z,13.31
2023-04-23T20:26:16.308Z,13.28
2023-04-23T20:28:46.559Z,13.18
2023-04-23T20:31:16.259Z,13.06
2023-04-23T20:33:48.425Z,13.01
2023-04-23T20:36:20.202Z,12.90
2023-04-23T20:38:49.905Z,12.82
2023-04-23T20:41:20.558Z,12.80
2023-04-23T20:43:50.703Z,12.77
2023-04-23T20:46:20.268Z,12.71
2023-04-23T20:48:53.113Z,12.68
2023-04-23T20:51:22.736Z,12.67
2023-04-23T20:53:52.842Z,12.61
2023-04-23T20:56:22.517Z,12.58
2023-04-23T20:58:52.165Z,12.55
2023-04-23T21:01:21.804Z,12.51
2023-04-23T21:03:54.801Z,12.46
2023-04-23T21:06:25.192Z,12.43
2023-04-23T21:08:54.709Z,12.39
2023-04-23T21:11:24.949Z,12.44
2023-04-23T21:13:56.038Z,12.45
2023-04-23T21:16:25.742Z,12.42
2023-04-23T21:18:57.897Z,12.45
2023-04-23T21:21:29.878Z,12.47
2023-04-23T21:23:59.801Z,12.49
2023-04-23T21:26:29.711Z,12.49
2023-04-23T21:28:59.410Z,12.46
2023-04-23T21:31:41.129Z,12.45
2023-04-23T21:34:13.297Z,12.43
2023-04-23T21:36:44.819Z,12.43
2023-04-23T21:39:14.496Z,12.38
2023-04-23T21:41:45.010Z,12.36
2023-04-23T21:44:14.608Z,12.35
2023-04-23T21:46:45.076Z,12.31
2023-04-23T21:49:17.443Z,12.26
2023-04-23T21:51:46.982Z,12.21
2023-04-23T21:54:16.846Z,12.16
2023-04-23T21:56:46.428Z,12.13
2023-04-23T21:59:16.287Z,12.11
2023-04-23T22:01:45.834Z,12.09
2023-04-23T22:04:18.617Z,12.05
2023-04-23T22:06:48.541Z,12.02
2023-04-23T22:09:18.120Z,12.00
2023-04-23T22:12:00.995Z,11.93
2023-04-23T22:14:31.381Z,11.94
2023-04-23T22:17:02.196Z,11.90
2023-04-23T22:19:34.371Z,11.86
2023-04-23T22:22:03.963Z,11.81
2023-04-23T22:24:33.514Z,11.77
2023-04-23T22:27:03.164Z,11.76
2023-04-23T22:29:32.729Z,11.73
2023-04-23T22:32:02.333Z,11.72
2023-04-23T22:34:34.487Z,11.67
2023-04-23T22:37:04.253Z,11.65
2023-04-23T22:39:33.930Z,11.62
2023-04-23T22:42:03.532Z,11.56
2023-04-23T22:44:33.103Z,11.49
2023-04-23T22:47:02.624Z,11.44
2023-04-23T22:49:34.982Z,11.37
2023-04-23T22:52:04.667Z,11.33
2023-04-23T22:54:34.208Z,11.31
2023-04-23T22:57:03.977Z,11.28
2023-04-23T22:59:33.671Z,11.24
2023-04-23T23:02:03.269Z,11.16
2023-04-23T23:04:37.969Z,11.13
2023-04-23T23:07:07.806Z,11.15
2023-04-23T23:09:37.665Z,11.17
2023-04-23T23:12:08.458Z,11.20
2023-04-23T23:14:38.101Z,11.22
2023-04-23T23:17:08.462Z,11.26
2023-04-23T23:19:40.787Z,11.28
2023-04-23T23:22:10.564Z,11.32
2023-04-23T23:24:40.202Z,11.32
2023-04-23T23:27:09.712Z,11.32
2023-04-23T23:29:39.887Z,11.36
2023-04-23T23:32:09.584Z,11.39
2023-04-23T23:34:41.687Z,11.39
2023-04-23T23:37:11.266Z,11.38
2023-04-23T23:39:41.483Z,11.40
2023-04-23T23:42:11.386Z,11.40
2023-04-23T23:44:40.961Z,11.38
2023-04-23T23:47:10.557Z,11.36
2023-04-23T23:49:44.528Z,11.36
2023-04-23T23:52:14.216Z,11.37
2023-04-23T23:54:43.782Z,11.43
2023-04-23T23:57:13.263Z,11.46
2023-04-23T23:59:43.158Z,11.48
